sensor_id;sensor_type;location;lat;lon;timestamp;P1;durP1;ratioP1;P2;durP2;ratioP2
27666;SDS011;15074;50.940;5.282;2023-04-15T00:00:32;9.40;;;5.75;;
27666;SDS011;15074;50.940;5.282;2023-04-15T00:02:58;9.40;;;5.93;;
27666;SDS011;15074;50.940;5.282;2023-04-15T00:05:24;7.90;;;5.20;;
27666;SDS011;15074;50.940;5.282;2023-04-15T00:07:50;6.60;;;5.07;;
27666;SDS011;15074;50.940;5.282;2023-04-15T00:10:16;8.63;;;5.88;;
27666;SDS011;15074;50.940;5.282;2023-04-15T00:12:41;6.55;;;5.32;;
27666;SDS011;15074;50.940;5.282;2023-04-15T00:15:07;6.15;;;5.55;;
27666;SDS011;15074;50.940;5.282;2023-04-15T00:17:34;6.00;;;5.40;;
27666;SDS011;15074;50.940;5.282;2023-04-15T00:20:00;7.65;;;5.78;;
27666;SDS011;15074;50.940;5.282;2023-04-15T00:22:26;7.20;;;4.70;;
27666;SDS011;15074;50.940;5.282;2023-04-15T00:24:52;7.57;;;4.95;;
27666;SDS011;15074;50.940;5.282;2023-04-15T00:27:17;12.20;;;4.78;;
27666;SDS011;15074;50.940;5.282;2023-04-15T00:29:43;6.28;;;4.70;;
27666;SDS011;15074;50.940;5.282;2023-04-15T00:32:09;6.60;;;4.00;;
27666;SDS011;15074;50.940;5.282;2023-04-15T00:34:35;5.45;;;4.03;;
27666;SDS011;15074;50.940;5.282;2023-04-15T00:37:01;6.93;;;3.67;;
27666;SDS011;15074;50.940;5.282;2023-04-15T00:39:27;8.23;;;4.20;;
27666;SDS011;15074;50.940;5.282;2023-04-15T00:41:52;9.00;;;3.22;;
27666;SDS011;15074;50.940;5.282;2023-04-15T00:44:18;5.55;;;3.35;;
27666;SDS011;15074;50.940;5.282;2023-04-15T00:46:44;6.38;;;3.47;;
27666;SDS011;15074;50.940;5.282;2023-04-15T00:49:11;5.13;;;3.85;;
27666;SDS011;15074;50.940;5.282;2023-04-15T00:51:37;7.10;;;3.90;;
27666;SDS011;15074;50.940;5.282;2023-04-15T00:54:03;5.00;;;4.50;;
27666;SDS011;15074;50.940;5.282;2023-04-15T00:56:30;6.28;;;4.50;;
27666;SDS011;15074;50.940;5.282;2023-04-15T00:58:58;9.13;;;5.35;;
27666;SDS011;15074;50.940;5.282;2023-04-15T01:01:24;6.78;;;4.93;;
27666;SDS011;15074;50.940;5.282;2023-04-15T01:03:51;5.50;;;4.47;;
27666;SDS011;15074;50.940;5.282;2023-04-15T01:06:17;7.15;;;5.05;;
27666;SDS011;15074;50.940;5.282;2023-04-15T01:08:43;5.18;;;4.68;;
27666;SDS011;15074;50.940;5.282;2023-04-15T01:11:09;7.18;;;5.47;;
27666;SDS011;15074;50.940;5.282;2023-04-15T01:13:37;6.68;;;5.63;;
27666;SDS011;15074;50.940;5.282;2023-04-15T01:16:03;8.27;;;6.38;;
27666;SDS011;15074;50.940;5.282;2023-04-15T01:18:29;7.95;;;6.03;;
27666;SDS011;15074;50.940;5.282;2023-04-15T01:20:56;6.53;;;5.93;;
27666;SDS011;15074;50.940;5.282;2023-04-15T01:23:22;7.30;;;5.50;;
27666;SDS011;15074;50.940;5.282;2023-04-15T01:25:48;6.70;;;6.00;;
27666;SDS011;15074;50.940;5.282;2023-04-15T01:28:14;6.85;;;6.15;;
27666;SDS011;15074;50.940;5.282;2023-04-15T01:30:40;7.68;;;6.32;;
27666;SDS011;15074;50.940;5.282;2023-04-15T01:33:06;7.65;;;6.10;;
27666;SDS011;15074;50.940;5.282;2023-04-15T01:35:31;12.40;;;6.55;;
27666;SDS011;15074;50.940;5.282;2023-04-15T01:38:07;7.00;;;5.40;;
27666;SDS011;15074;50.940;5.282;2023-04-15T01:40:33;6.65;;;5.03;;
27666;SDS011;15074;50.940;5.282;2023-04-15T01:43:02;8.00;;;5.95;;
27666;SDS011;15074;50.940;5.282;2023-04-15T01:45:28;6.43;;;5.35;;
27666;SDS011;15074;50.940;5.282;2023-04-15T01:47:54;6.93;;;5.10;;
27666;SDS011;15074;50.940;5.282;2023-04-15T01:50:20;6.55;;;5.32;;
27666;SDS011;15074;50.940;5.282;2023-04-15T01:52:45;7.18;;;6.00;;
27666;SDS011;15074;50.940;5.282;2023-04-15T01:55:12;7.47;;;5.38;;
27666;SDS011;15074;50.940;5.282;2023-04-15T01:57:38;8.68;;;7.57;;
27666;SDS011;15074;50.940;5.282;2023-04-15T02:00:05;7.07;;;6.07;;
27666;SDS011;15074;50.940;5.282;2023-04-15T02:02:32;20.30;;;18.30;;
27666;SDS011;15074;50.940;5.282;2023-04-15T02:04:58;6.70;;;6.00;;
27666;SDS011;15074;50.940;5.282;2023-04-15T02:07:25;7.10;;;6.47;;
27666;SDS011;15074;50.940;5.282;2023-04-15T02:09:50;6.88;;;6.18;;
27666;SDS011;15074;50.940;5.282;2023-04-15T02:12:17;7.15;;;6.43;;
27666;SDS011;15074;50.940;5.282;2023-04-15T02:14:42;8.88;;;5.75;;
27666;SDS011;15074;50.940;5.282;2023-04-15T02:17:08;6.28;;;5.68;;
27666;SDS011;15074;50.940;5.282;2023-04-15T02:19:35;35.60;;;29.60;;
27666;SDS011;15074;50.940;5.282;2023-04-15T02:22:01;16.35;;;15.07;;
27666;SDS011;15074;50.940;5.282;2023-04-15T02:24:27;11.80;;;10.82;;
27666;SDS011;15074;50.940;5.282;2023-04-15T02:26:54;15.70;;;14.50;;
27666;SDS011;15074;50.940;5.282;2023-04-15T02:29:20;20.13;;;18.20;;
27666;SDS011;15074;50.940;5.282;2023-04-15T02:31:47;15.75;;;14.45;;
27666;SDS011;15074;50.940;5.282;2023-04-15T02:34:13;11.68;;;10.57;;
27666;SDS011;15074;50.940;5.282;2023-04-15T02:36:39;8.55;;;7.70;;
27666;SDS011;15074;50.940;5.282;2023-04-15T02:39:05;8.77;;;7.55;;
27666;SDS011;15074;50.940;5.282;2023-04-15T02:41:31;9.73;;;8.75;;
27666;SDS011;15074;50.940;5.282;2023-04-15T02:43:57;7.88;;;6.95;;
27666;SDS011;15074;50.940;5.282;2023-04-15T02:46:22;9.23;;;8.13;;
27666;SDS011;15074;50.940;5.282;2023-04-15T02:48:48;10.00;;;8.90;;
27666;SDS011;15074;50.940;5.282;2023-04-15T02:51:15;9.25;;;8.35;;
27666;SDS011;15074;50.940;5.282;2023-04-15T02:53:43;9.68;;;8.68;;
27666;SDS011;15074;50.940;5.282;2023-04-15T02:56:10;9.38;;;8.48;;
27666;SDS011;15074;50.940;5.282;2023-04-15T02:58:36;11.57;;;9.40;;
27666;SDS011;15074;50.940;5.282;2023-04-15T03:01:03;9.32;;;8.50;;
27666;SDS011;15074;50.940;5.282;2023-04-15T03:03:28;10.25;;;9.18;;
27666;SDS011;15074;50.940;5.282;2023-04-15T03:05:54;8.52;;;7.75;;
27666;SDS011;15074;50.940;5.282;2023-04-15T03:08:20;10.45;;;8.30;;
27666;SDS011;15074;50.940;5.282;2023-04-15T03:10:46;9.73;;;8.52;;
27666;SDS011;15074;50.940;5.282;2023-04-15T03:13:12;7.88;;;7.18;;
27666;SDS011;15074;50.940;5.282;2023-04-15T03:15:38;9.38;;;8.27;;
27666;SDS011;15074;50.940;5.282;2023-04-15T03:18:03;8.38;;;7.57;;
27666;SDS011;15074;50.940;5.282;2023-04-15T03:20:29;8.18;;;7.30;;
27666;SDS011;15074;50.940;5.282;2023-04-15T03:22:55;10.55;;;6.95;;
27666;SDS011;15074;50.940;5.282;2023-04-15T03:25:21;8.85;;;7.40;;
27666;SDS011;15074;50.940;5.282;2023-04-15T03:27:46;8.52;;;7.32;;
27666;SDS011;15074;50.940;5.282;2023-04-15T03:30:12;8.43;;;7.47;;
27666;SDS011;15074;50.940;5.282;2023-04-15T03:32:38;7.60;;;6.90;;
27666;SDS011;15074;50.940;5.282;2023-04-15T03:35:04;8.93;;;6.30;;
27666;SDS011;15074;50.940;5.282;2023-04-15T03:37:30;7.53;;;6.82;;
27666;SDS011;15074;50.940;5.282;2023-04-15T03:39:56;10.00;;;7.57;;
27666;SDS011;15074;50.940;5.282;2023-04-15T03:42:21;7.95;;;7.15;;
27666;SDS011;15074;50.940;5.282;2023-04-15T03:44:47;8.40;;;6.82;;
27666;SDS011;15074;50.940;5.282;2023-04-15T03:47:13;7.70;;;6.75;;
27666;SDS011;15074;50.940;5.282;2023-04-15T03:49:39;12.90;;;6.05;;
27666;SDS011;15074;50.940;5.282;2023-04-15T03:52:05;6.80;;;6.10;;
27666;SDS011;15074;50.940;5.282;2023-04-15T03:54:31;8.20;;;5.15;;
27666;SDS011;15074;50.940;5.282;2023-04-15T03:56:56;6.03;;;5.40;;
27666;SDS011;15074;50.940;5.282;2023-04-15T03:59:22;8.27;;;5.35;;
27666;SDS011;15074;50.940;5.282;2023-04-15T04:01:48;7.57;;;4.72;;
27666;SDS011;15074;50.940;5.282;2023-04-15T04:04:13;4.95;;;4.25;;
27666;SDS011;15074;50.940;5.282;2023-04-15T04:06:39;6.43;;;4.88;;
27666;SDS011;15074;50.940;5.282;2023-04-15T04:09:05;10.98;;;5.32;;
27666;SDS011;15074;50.940;5.282;2023-04-15T04:11:31;6.53;;;4.63;;
27666;SDS011;15074;50.940;5.282;2023-04-15T04:13:57;6.20;;;4.93;;
27666;SDS011;15074;50.940;5.282;2023-04-15T04:16:23;7.45;;;5.10;;
27666;SDS011;15074;50.940;5.282;2023-04-15T04:18:48;6.68;;;5.88;;
27666;SDS011;15074;50.940;5.282;2023-04-15T04:21:14;11.75;;;5.90;;
27666;SDS011;15074;50.940;5.282;2023-04-15T04:23:40;6.93;;;6.18;;
27666;SDS011;15074;50.940;5.282;2023-04-15T04:26:06;7.90;;;6.82;;
27666;SDS011;15074;50.940;5.282;2023-04-15T04:28:31;9.38;;;7.30;;
27666;SDS011;15074;50.940;5.282;2023-04-15T04:30:57;11.93;;;6.68;;
27666;SDS011;15074;50.940;5.282;2023-04-15T04:33:23;6.90;;;5.65;;
27666;SDS011;15074;50.940;5.282;2023-04-15T04:35:49;7.60;;;5.57;;
27666;SDS011;15074;50.940;5.282;2023-04-15T04:38:14;10.80;;;5.25;;
27666;SDS011;15074;50.940;5.282;2023-04-15T04:40:40;6.43;;;5.80;;
27666;SDS011;15074;50.940;5.282;2023-04-15T04:43:06;5.88;;;4.40;;
27666;SDS011;15074;50.940;5.282;2023-04-15T04:45:31;6.35;;;4.47;;
27666;SDS011;15074;50.940;5.282;2023-04-15T06:54:06;7.80;;;6.88;;
27666;SDS011;15074;50.940;5.282;2023-04-15T06:56:32;13.07;;;7.53;;
27666;SDS011;15074;50.940;5.282;2023-04-15T06:58:58;8.02;;;7.05;;
27666;SDS011;15074;50.940;5.282;2023-04-15T07:01:24;8.07;;;7.35;;
27666;SDS011;15074;50.940;5.282;2023-04-15T07:03:50;10.68;;;6.82;;
27666;SDS011;15074;50.940;5.282;2023-04-15T07:06:15;7.43;;;6.70;;
27666;SDS011;15074;50.940;5.282;2023-04-15T07:08:41;8.52;;;7.25;;
27666;SDS011;15074;50.940;5.282;2023-04-15T07:11:06;7.03;;;6.30;;
27666;SDS011;15074;50.940;5.282;2023-04-15T07:13:32;7.40;;;6.25;;
27666;SDS011;15074;50.940;5.282;2023-04-15T07:15:58;6.32;;;5.75;;
27666;SDS011;15074;50.940;5.282;2023-04-15T07:18:24;6.05;;;5.45;;
27666;SDS011;15074;50.940;5.282;2023-04-15T07:20:50;6.30;;;5.70;;
27666;SDS011;15074;50.940;5.282;2023-04-15T07:23:16;6.50;;;5.85;;
27666;SDS011;15074;50.940;5.282;2023-04-15T07:25:42;6.53;;;5.93;;
27666;SDS011;15074;50.940;5.282;2023-04-15T07:28:08;7.53;;;5.82;;
27666;SDS011;15074;50.940;5.282;2023-04-15T07:30:33;6.20;;;5.60;;
27666;SDS011;15074;50.940;5.282;2023-04-15T07:33:00;5.82;;;5.32;;
27666;SDS011;15074;50.940;5.282;2023-04-15T07:35:26;6.07;;;4.93;;
27666;SDS011;15074;50.940;5.282;2023-04-15T07:37:54;5.45;;;4.82;;
27666;SDS011;15074;50.940;5.282;2023-04-15T07:40:20;5.15;;;4.65;;
27666;SDS011;15074;50.940;5.282;2023-04-15T07:42:46;5.88;;;4.78;;
27666;SDS011;15074;50.940;5.282;2023-04-15T07:45:13;4.82;;;4.43;;
27666;SDS011;15074;50.940;5.282;2023-04-15T07:47:39;5.72;;;4.35;;
27666;SDS011;15074;50.940;5.282;2023-04-15T07:50:06;9.75;;;5.13;;
27666;SDS011;15074;50.940;5.282;2023-04-15T07:52:33;5.63;;;5.07;;
27666;SDS011;15074;50.940;5.282;2023-04-15T07:55:04;4.88;;;4.40;;
27666;SDS011;15074;50.940;5.282;2023-04-15T07:57:33;6.13;;;5.35;;
27666;SDS011;15074;50.940;5.282;2023-04-15T08:00:00;5.65;;;5.15;;
27666;SDS011;15074;50.940;5.282;2023-04-15T08:02:27;6.38;;;5.20;;
27666;SDS011;15074;50.940;5.282;2023-04-15T08:04:53;6.18;;;5.55;;
27666;SDS011;15074;50.940;5.282;2023-04-15T08:07:19;6.65;;;5.63;;
27666;SDS011;15074;50.940;5.282;2023-04-15T08:09:45;8.52;;;5.90;;
27666;SDS011;15074;50.940;5.282;2023-04-15T08:12:11;6.03;;;5.50;;
27666;SDS011;15074;50.940;5.282;2023-04-15T08:14:37;7.90;;;6.43;;
27666;SDS011;15074;50.940;5.282;2023-04-15T08:17:03;8.30;;;7.50;;
27666;SDS011;15074;50.940;5.282;2023-04-15T08:19:29;7.72;;;7.03;;
27666;SDS011;15074;50.940;5.282;2023-04-15T08:21:55;7.05;;;6.00;;
27666;SDS011;15074;50.940;5.282;2023-04-15T08:24:21;7.95;;;7.22;;
27666;SDS011;15074;50.940;5.282;2023-04-15T08:26:50;9.48;;;8.70;;
27666;SDS011;15074;50.940;5.282;2023-04-15T08:29:16;10.15;;;8.50;;
27666;SDS011;15074;50.940;5.282;2023-04-15T08:31:42;9.23;;;8.43;;
27666;SDS011;15074;50.940;5.282;2023-04-15T08:34:09;8.40;;;7.70;;
27666;SDS011;15074;50.940;5.282;2023-04-15T08:36:36;11.15;;;8.68;;
27666;SDS011;15074;50.940;5.282;2023-04-15T08:39:02;8.88;;;8.05;;
27666;SDS011;15074;50.940;5.282;2023-04-15T08:41:30;8.00;;;7.28;;
27666;SDS011;15074;50.940;5.282;2023-04-15T08:44:04;7.72;;;7.13;;
27666;SDS011;15074;50.940;5.282;2023-04-15T08:46:30;9.18;;;7.07;;
27666;SDS011;15074;50.940;5.282;2023-04-15T08:48:58;8.05;;;7.25;;
27666;SDS011;15074;50.940;5.282;2023-04-15T08:51:27;6.95;;;6.32;;
27666;SDS011;15074;50.940;5.282;2023-04-15T08:53:53;7.10;;;6.50;;
27666;SDS011;15074;50.940;5.282;2023-04-15T08:56:19;6.47;;;5.97;;
27666;SDS011;15074;50.940;5.282;2023-04-15T08:58:50;5.80;;;5.28;;
27666;SDS011;15074;50.940;5.282;2023-04-15T09:01:16;6.45;;;5.95;;
27666;SDS011;15074;50.940;5.282;2023-04-15T09:03:43;5.90;;;5.22;;
27666;SDS011;15074;50.940;5.282;2023-04-15T09:06:10;6.05;;;5.25;;
27666;SDS011;15074;50.940;5.282;2023-04-15T09:08:36;5.93;;;4.68;;
27666;SDS011;15074;50.940;5.282;2023-04-15T09:11:02;5.38;;;4.97;;
27666;SDS011;15074;50.940;5.282;2023-04-15T09:13:28;5.75;;;5.25;;
27666;SDS011;15074;50.940;5.282;2023-04-15T09:15:54;5.47;;;5.07;;
27666;SDS011;15074;50.940;5.282;2023-04-15T09:18:29;5.85;;;5.30;;
27666;SDS011;15074;50.940;5.282;2023-04-15T09:21:03;5.47;;;4.97;;
27666;SDS011;15074;50.940;5.282;2023-04-15T09:23:33;5.65;;;5.15;;
27666;SDS011;15074;50.940;5.282;2023-04-15T09:26:00;5.63;;;5.07;;
27666;SDS011;15074;50.940;5.282;2023-04-15T09:28:27;6.30;;;5.20;;
27666;SDS011;15074;50.940;5.282;2023-04-15T09:30:56;5.60;;;5.10;;
27666;SDS011;15074;50.940;5.282;2023-04-15T09:33:24;5.15;;;4.65;;
27666;SDS011;15074;50.940;5.282;2023-04-15T09:35:58;4.45;;;4.03;;
27666;SDS011;15074;50.940;5.282;2023-04-15T09:38:25;4.32;;;3.92;;
27666;SDS011;15074;50.940;5.282;2023-04-15T09:40:52;5.43;;;4.75;;
27666;SDS011;15074;50.940;5.282;2023-04-15T09:43:18;5.43;;;4.93;;
27666;SDS011;15074;50.940;5.282;2023-04-15T09:45:51;5.75;;;5.25;;
27666;SDS011;15074;50.940;5.282;2023-04-15T09:50:45;5.63;;;5.13;;
27666;SDS011;15074;50.940;5.282;2023-04-15T09:53:16;5.10;;;4.70;;
27666;SDS011;15074;50.940;5.282;2023-04-15T09:55:50;4.38;;;3.97;;
27666;SDS011;15074;50.940;5.282;2023-04-15T09:58:17;5.78;;;5.00;;
27666;SDS011;15074;50.940;5.282;2023-04-15T10:00:48;5.68;;;4.28;;
27666;SDS011;15074;50.940;5.282;2023-04-15T10:03:20;4.05;;;3.70;;
27666;SDS011;15074;50.940;5.282;2023-04-15T10:05:48;3.30;;;3.00;;
27666;SDS011;15074;50.940;5.282;2023-04-15T10:08:18;4.35;;;3.85;;
27666;SDS011;15074;50.940;5.282;2023-04-15T10:10:46;4.10;;;3.70;;
27666;SDS011;15074;50.940;5.282;2023-04-15T10:13:13;3.75;;;3.30;;
27666;SDS011;15074;50.940;5.282;2023-04-15T10:15:42;2.90;;;2.58;;
27666;SDS011;15074;50.940;5.282;2023-04-15T10:18:10;2.38;;;1.98;;
27666;SDS011;15074;50.940;5.282;2023-04-15T10:20:37;2.25;;;2.05;;
27666;SDS011;15074;50.940;5.282;2023-04-15T10:23:04;8.48;;;2.75;;
27666;SDS011;15074;50.940;5.282;2023-04-15T10:25:30;3.17;;;2.42;;
27666;SDS011;15074;50.940;5.282;2023-04-15T10:27:58;2.83;;;2.30;;
27666;SDS011;15074;50.940;5.282;2023-04-15T10:30:24;3.20;;;2.63;;
27666;SDS011;15074;50.940;5.282;2023-04-15T10:32:50;2.70;;;1.83;;
27666;SDS011;15074;50.940;5.282;2023-04-15T10:35:17;1.63;;;1.00;;
27666;SDS011;15074;50.940;5.282;2023-04-15T10:37:45;1.77;;;1.15;;
27666;SDS011;15074;50.940;5.282;2023-04-15T10:40:27;2.28;;;1.30;;
27666;SDS011;15074;50.940;5.282;2023-04-15T10:42:55;2.92;;;1.30;;
27666;SDS011;15074;50.940;5.282;2023-04-15T10:45:31;1.20;;;1.10;;
27666;SDS011;15074;50.940;5.282;2023-04-15T10:48:00;1.88;;;1.30;;
27666;SDS011;15074;50.940;5.282;2023-04-15T10:50:29;1.50;;;1.20;;
27666;SDS011;15074;50.940;5.282;2023-04-15T10:52:56;2.60;;;1.40;;
27666;SDS011;15074;50.940;5.282;2023-04-15T10:55:24;2.33;;;1.55;;
27666;SDS011;15074;50.940;5.282;2023-04-15T11:00:18;3.00;;;1.60;;
27666;SDS011;15074;50.940;5.282;2023-04-15T11:02:52;2.60;;;1.77;;
27666;SDS011;15074;50.940;5.282;2023-04-15T11:08:07;11.05;;;2.63;;
27666;SDS011;15074;50.940;5.282;2023-04-15T11:13:20;2.15;;;1.70;;
27666;SDS011;15074;50.940;5.282;2023-04-15T11:15:52;2.40;;;1.70;;
27666;SDS011;15074;50.940;5.282;2023-04-15T11:18:22;2.30;;;1.52;;
27666;SDS011;15074;50.940;5.282;2023-04-15T11:20:51;1.83;;;1.50;;
27666;SDS011;15074;50.940;5.282;2023-04-15T11:23:30;2.00;;;1.77;;
27666;SDS011;15074;50.940;5.282;2023-04-15T11:26:05;2.20;;;1.83;;
27666;SDS011;15074;50.940;5.282;2023-04-15T11:28:36;2.85;;;1.80;;
27666;SDS011;15074;50.940;5.282;2023-04-15T11:31:08;2.30;;;1.90;;
27666;SDS011;15074;50.940;5.282;2023-04-15T11:33:36;2.30;;;1.90;;
27666;SDS011;15074;50.940;5.282;2023-04-15T11:36:03;2.30;;;1.83;;
27666;SDS011;15074;50.940;5.282;2023-04-15T11:38:29;2.30;;;1.88;;
27666;SDS011;15074;50.940;5.282;2023-04-15T11:40:55;5.10;;;2.08;;
27666;SDS011;15074;50.940;5.282;2023-04-15T11:43:21;2.10;;;1.88;;
27666;SDS011;15074;50.940;5.282;2023-04-15T11:45:48;1.63;;;1.20;;
27666;SDS011;15074;50.940;5.282;2023-04-15T11:48:20;1.10;;;1.00;;
27666;SDS011;15074;50.940;5.282;2023-04-15T11:51:04;1.00;;;0.90;;
27666;SDS011;15074;50.940;5.282;2023-04-15T11:53:38;1.10;;;1.00;;
27666;SDS011;15074;50.940;5.282;2023-04-15T11:56:06;1.25;;;0.90;;
27666;SDS011;15074;50.940;5.282;2023-04-15T11:58:35;1.85;;;1.00;;
27666;SDS011;15074;50.940;5.282;2023-04-15T12:01:02;1.50;;;1.40;;
27666;SDS011;15074;50.940;5.282;2023-04-15T12:03:29;1.48;;;1.30;;
27666;SDS011;15074;50.940;5.282;2023-04-15T12:16:30;4.10;;;1.30;;
27666;SDS011;15074;50.940;5.282;2023-04-15T12:18:58;1.20;;;1.02;;
27666;SDS011;15074;50.940;5.282;2023-04-15T12:21:25;1.50;;;1.20;;
27666;SDS011;15074;50.940;5.282;2023-04-15T12:24:00;1.40;;;1.30;;
27666;SDS011;15074;50.940;5.282;2023-04-15T12:26:28;2.38;;;1.27;;
27666;SDS011;15074;50.940;5.282;2023-04-15T12:29:00;1.23;;;0.90;;
27666;SDS011;15074;50.940;5.282;2023-04-15T12:31:31;1.10;;;1.00;;
27666;SDS011;15074;50.940;5.282;2023-04-15T12:33:57;3.88;;;1.40;;
27666;SDS011;15074;50.940;5.282;2023-04-15T12:36:24;1.65;;;1.20;;
27666;SDS011;15074;50.940;5.282;2023-04-15T12:38:51;1.92;;;1.10;;
27666;SDS011;15074;50.940;5.282;2023-04-15T12:41:17;0.98;;;0.90;;
27666;SDS011;15074;50.940;5.282;2023-04-15T12:43:44;1.20;;;1.00;;
27666;SDS011;15074;50.940;5.282;2023-04-15T12:46:11;1.00;;;0.85;;
27666;SDS011;15074;50.940;5.282;2023-04-15T12:48:37;1.35;;;0.98;;
27666;SDS011;15074;50.940;5.282;2023-04-15T12:51:04;1.20;;;1.02;;
27666;SDS011;15074;50.940;5.282;2023-04-15T12:53:30;1.33;;;1.00;;
27666;SDS011;15074;50.940;5.282;2023-04-15T12:55:56;1.10;;;1.00;;
27666;SDS011;15074;50.940;5.282;2023-04-15T12:58:21;1.10;;;0.90;;
27666;SDS011;15074;50.940;5.282;2023-04-15T13:00:47;1.70;;;1.10;;
27666;SDS011;15074;50.940;5.282;2023-04-15T13:03:14;1.30;;;1.08;;
27666;SDS011;15074;50.940;5.282;2023-04-15T13:05:40;1.75;;;0.95;;
27666;SDS011;15074;50.940;5.282;2023-04-15T13:08:06;1.00;;;0.80;;
27666;SDS011;15074;50.940;5.282;2023-04-15T13:10:32;1.55;;;1.00;;
27666;SDS011;15074;50.940;5.282;2023-04-15T13:13:00;1.40;;;0.98;;
27666;SDS011;15074;50.940;5.282;2023-04-15T13:15:27;1.25;;;0.85;;
27666;SDS011;15074;50.940;5.282;2023-04-15T13:17:53;1.30;;;1.20;;
27666;SDS011;15074;50.940;5.282;2023-04-15T13:20:19;2.17;;;0.75;;
27666;SDS011;15074;50.940;5.282;2023-04-15T13:22:45;1.73;;;1.20;;
27666;SDS011;15074;50.940;5.282;2023-04-15T13:25:10;1.00;;;0.80;;
27666;SDS011;15074;50.940;5.282;2023-04-15T13:27:36;1.90;;;1.00;;
27666;SDS011;15074;50.940;5.282;2023-04-15T13:30:02;2.05;;;1.10;;
27666;SDS011;15074;50.940;5.282;2023-04-15T13:32:29;1.20;;;0.97;;
27666;SDS011;15074;50.940;5.282;2023-04-15T13:34:54;1.00;;;0.85;;
27666;SDS011;15074;50.940;5.282;2023-04-15T13:37:24;1.58;;;1.20;;
27666;SDS011;15074;50.940;5.282;2023-04-15T13:39:52;2.83;;;1.08;;
27666;SDS011;15074;50.940;5.282;2023-04-15T13:42:17;2.08;;;1.00;;
27666;SDS011;15074;50.940;5.282;2023-04-15T13:44:43;1.48;;;1.10;;
27666;SDS011;15074;50.940;5.282;2023-04-15T13:47:09;1.45;;;0.93;;
27666;SDS011;15074;50.940;5.282;2023-04-15T13:49:35;1.88;;;1.33;;
27666;SDS011;15074;50.940;5.282;2023-04-15T13:52:00;1.20;;;1.10;;
27666;SDS011;15074;50.940;5.282;2023-04-15T13:54:26;1.42;;;1.10;;
27666;SDS011;15074;50.940;5.282;2023-04-15T13:56:53;1.45;;;1.08;;
27666;SDS011;15074;50.940;5.282;2023-04-15T13:59:20;1.77;;;1.00;;
27666;SDS011;15074;50.940;5.282;2023-04-15T14:01:46;3.78;;;0.90;;
27666;SDS011;15074;50.940;5.282;2023-04-15T14:04:12;1.98;;;0.90;;
27666;SDS011;15074;50.940;5.282;2023-04-15T14:06:37;1.50;;;1.00;;
27666;SDS011;15074;50.940;5.282;2023-04-15T14:09:03;2.55;;;1.00;;
27666;SDS011;15074;50.940;5.282;2023-04-15T14:11:29;2.47;;;1.20;;
27666;SDS011;15074;50.940;5.282;2023-04-15T14:13:55;1.02;;;0.93;;
27666;SDS011;15074;50.940;5.282;2023-04-15T14:16:20;1.08;;;0.80;;
27666;SDS011;15074;50.940;5.282;2023-04-15T14:18:46;1.30;;;0.80;;
27666;SDS011;15074;50.940;5.282;2023-04-15T16:29:57;1.20;;;0.80;;
27666;SDS011;15074;50.940;5.282;2023-04-15T18:31:33;1.52;;;1.00;;
27666;SDS011;15074;50.940;5.282;2023-04-15T18:37:21;1.83;;;1.00;;
27666;SDS011;15074;50.940;5.282;2023-04-15T18:39:46;2.03;;;0.90;;
27666;SDS011;15074;50.940;5.282;2023-04-15T18:42:12;1.10;;;0.80;;
27666;SDS011;15074;50.940;5.282;2023-04-15T18:44:38;3.85;;;0.70;;
27666;SDS011;15074;50.940;5.282;2023-04-15T18:47:03;1.90;;;0.88;;
27666;SDS011;15074;50.940;5.282;2023-04-15T18:49:30;3.17;;;1.20;;
27666;SDS011;15074;50.940;5.282;2023-04-15T18:51:57;2.00;;;0.80;;
27666;SDS011;15074;50.940;5.282;2023-04-15T18:54:23;2.38;;;0.90;;
27666;SDS011;15074;50.940;5.282;2023-04-15T18:56:49;2.63;;;0.80;;
27666;SDS011;15074;50.940;5.282;2023-04-15T18:59:15;1.42;;;1.00;;
27666;SDS011;15074;50.940;5.282;2023-04-15T19:01:41;1.58;;;0.98;;
27666;SDS011;15074;50.940;5.282;2023-04-15T19:04:07;2.47;;;0.73;;
27666;SDS011;15074;50.940;5.282;2023-04-15T19:06:34;1.95;;;1.05;;
27666;SDS011;15074;50.940;5.282;2023-04-15T19:08:59;2.45;;;1.00;;
27666;SDS011;15074;50.940;5.282;2023-04-15T19:11:26;3.00;;;1.13;;
27666;SDS011;15074;50.940;5.282;2023-04-15T19:13:52;2.55;;;1.15;;
27666;SDS011;15074;50.940;5.282;2023-04-15T19:16:18;2.80;;;1.02;;
27666;SDS011;15074;50.940;5.282;2023-04-15T19:18:44;3.25;;;1.40;;
27666;SDS011;15074;50.940;5.282;2023-04-15T19:21:10;2.17;;;1.13;;
27666;SDS011;15074;50.940;5.282;2023-04-15T19:23:36;3.40;;;1.35;;
27666;SDS011;15074;50.940;5.282;2023-04-15T19:26:02;2.28;;;1.30;;
27666;SDS011;15074;50.940;5.282;2023-04-15T19:28:29;2.47;;;1.02;;
27666;SDS011;15074;50.940;5.282;2023-04-15T19:30:55;3.95;;;1.33;;
27666;SDS011;15074;50.940;5.282;2023-04-15T19:33:21;1.60;;;1.10;;
27666;SDS011;15074;50.940;5.282;2023-04-15T19:35:47;2.83;;;0.95;;
27666;SDS011;15074;50.940;5.282;2023-04-15T19:38:14;3.80;;;1.10;;
27666;SDS011;15074;50.940;5.282;2023-04-15T19:40:40;2.25;;;1.00;;
27666;SDS011;15074;50.940;5.282;2023-04-15T19:43:06;3.40;;;1.05;;
27666;SDS011;15074;50.940;5.282;2023-04-15T19:45:32;3.47;;;1.35;;
27666;SDS011;15074;50.940;5.282;2023-04-15T19:47:58;2.63;;;1.10;;
27666;SDS011;15074;50.940;5.282;2023-04-15T19:50:24;3.58;;;1.52;;
27666;SDS011;15074;50.940;5.282;2023-04-15T19:52:51;3.70;;;1.58;;
27666;SDS011;15074;50.940;5.282;2023-04-15T19:55:17;3.83;;;1.55;;
27666;SDS011;15074;50.940;5.282;2023-04-15T19:57:43;3.88;;;1.67;;
27666;SDS011;15074;50.940;5.282;2023-04-15T20:00:09;4.93;;;1.80;;
27666;SDS011;15074;50.940;5.282;2023-04-15T20:02:35;4.07;;;1.50;;
27666;SDS011;15074;50.940;5.282;2023-04-15T20:05:01;7.22;;;1.25;;
27666;SDS011;15074;50.940;5.282;2023-04-15T20:07:27;4.13;;;1.40;;
27666;SDS011;15074;50.940;5.282;2023-04-15T20:09:53;2.85;;;1.63;;
27666;SDS011;15074;50.940;5.282;2023-04-15T20:12:18;2.65;;;1.48;;
27666;SDS011;15074;50.940;5.282;2023-04-15T20:14:44;6.28;;;1.50;;
27666;SDS011;15074;50.940;5.282;2023-04-15T20:17:10;3.03;;;1.40;;
27666;SDS011;15074;50.940;5.282;2023-04-15T20:19:36;3.40;;;1.40;;
27666;SDS011;15074;50.940;5.282;2023-04-15T20:22:02;5.07;;;1.80;;
27666;SDS011;15074;50.940;5.282;2023-04-15T20:24:27;4.88;;;1.73;;
27666;SDS011;15074;50.940;5.282;2023-04-15T20:26:53;3.38;;;1.90;;
27666;SDS011;15074;50.940;5.282;2023-04-15T20:29:18;4.60;;;1.60;;
27666;SDS011;15074;50.940;5.282;2023-04-15T20:31:44;4.00;;;1.58;;
27666;SDS011;15074;50.940;5.282;2023-04-15T20:34:10;3.95;;;1.83;;
27666;SDS011;15074;50.940;5.282;2023-04-15T20:36:36;1.92;;;1.38;;
27666;SDS011;15074;50.940;5.282;2023-04-15T20:39:01;3.55;;;1.80;;
27666;SDS011;15074;50.940;5.282;2023-04-15T20:41:27;4.15;;;1.80;;
27666;SDS011;15074;50.940;5.282;2023-04-15T20:43:53;5.47;;;1.83;;
27666;SDS011;15074;50.940;5.282;2023-04-15T20:46:19;4.20;;;1.60;;
27666;SDS011;15074;50.940;5.282;2023-04-15T20:48:45;5.43;;;1.95;;
27666;SDS011;15074;50.940;5.282;2023-04-15T20:51:10;5.50;;;1.98;;
27666;SDS011;15074;50.940;5.282;2023-04-15T20:53:36;6.32;;;1.88;;
27666;SDS011;15074;50.940;5.282;2023-04-15T20:56:02;4.30;;;2.85;;
27666;SDS011;15074;50.940;5.282;2023-04-15T20:58:28;5.45;;;2.20;;
27666;SDS011;15074;50.940;5.282;2023-04-15T21:00:53;4.03;;;2.15;;
27666;SDS011;15074;50.940;5.282;2023-04-15T21:03:19;5.82;;;1.90;;
27666;SDS011;15074;50.940;5.282;2023-04-15T21:05:45;4.25;;;1.90;;
27666;SDS011;15074;50.940;5.282;2023-04-15T21:08:10;4.45;;;1.90;;
27666;SDS011;15074;50.940;5.282;2023-04-15T21:10:36;7.45;;;2.00;;
27666;SDS011;15074;50.940;5.282;2023-04-15T21:13:04;7.87;;;2.73;;
27666;SDS011;15074;50.940;5.282;2023-04-15T21:15:30;5.10;;;2.30;;
27666;SDS011;15074;50.940;5.282;2023-04-15T21:17:56;7.93;;;2.05;;
27666;SDS011;15074;50.940;5.282;2023-04-15T21:20:22;4.38;;;1.95;;